Time;durP1;ratioP1;P1;durP2;ratioP2;P2;SDS_P1;SDS_P2;PMS_P1;PMS_P2;Temp;Humidity;BMP_temperature;BMP_pressure;BME280_temperature;BME280_humidity;BME280_pressure;Samples;Min_cycle;Max_cycle;Signal;HPM_P1;HPM_P2
2021/07/28 00:01:08;;;;;;;11.75;8.38;;;;;;;17.93;94.80;96003.31;5045905;28;20028;-83
2021/07/28 00:03:34;;;;;;;11.73;8.05;;;;;;;18.02;94.01;96002.06;5030350;28;20064;-84
2021/07/28 00:06:49;;;;;;;10.23;7.20;;;;;;;17.90;93.96;96006.38;5049633;28;20067;-84
2021/07/28 00:09:18;;;;;;;10.57;7.80;;;;;;;17.89;95.01;95999.44;5048445;28;20141;-83
2021/07/28 00:11:47;;;;;;;9.27;6.65;;;;;;;17.77;94.98;96006.44;5032717;28;20044;-84
2021/07/28 00:14:13;;;;;;;10.13;7.47;;;;;;;17.75;95.65;95997.84;5041472;28;20049;-83
2021/07/28 00:16:39;;;;;;;11.05;7.00;;;;;;;17.84;94.68;95993.94;5034244;28;20033;-83
2021/07/28 00:19:12;;;;;;;11.63;7.55;;;;;;;17.76;94.64;95988.81;5052130;28;20509;-83
2021/07/28 00:24:30;;;;;;;12.23;8.02;;;;;;;17.65;96.19;95977.00;5047682;28;20289;-84
2021/07/28 00:26:56;;;;;;;11.30;6.68;;;;;;;17.62;96.07;95993.38;5040992;28;20037;-84
2021/07/28 00:29:22;;;;;;;11.85;7.05;;;;;;;17.58;95.85;95992.97;5033635;28;20036;-84
2021/07/28 00:31:48;;;;;;;12.07;7.60;;;;;;;17.55;96.50;95995.25;5045954;28;20036;-84
2021/07/28 00:34:13;;;;;;;11.55;7.45;;;;;;;17.52;96.62;95998.31;5024381;28;20032;-84
2021/07/28 00:36:39;;;;;;;10.00;7.65;;;;;;;17.50;97.71;96005.66;5032182;28;20037;-85
2021/07/28 00:39:05;;;;;;;9.50;6.90;;;;;;;17.52;97.12;96000.97;5055480;28;20071;-85
2021/07/28 00:41:31;;;;;;;9.63;7.25;;;;;;;17.54;97.27;96007.72;5047684;28;20033;-86
2021/07/28 00:43:56;;;;;;;9.63;7.57;;;;;;;17.57;97.60;96003.81;5027145;28;20021;-84
2021/07/28 00:46:23;;;;;;;9.45;6.88;;;;;;;17.53;97.27;95999.94;5046462;28;20024;-84
2021/07/28 00:48:49;;;;;;;11.45;8.85;;;;;;;17.49;98.35;95994.22;5038867;28;20028;-84
2021/07/28 00:51:16;;;;;;;11.07;8.45;;;;;;;17.48;98.53;96005.88;5032497;28;20056;-84
2021/07/28 00:53:42;;;;;;;11.50;8.43;;;;;;;17.50;98.58;96014.44;5045231;28;20033;-85
2021/07/28 00:56:10;;;;;;;13.40;8.85;;;;;;;17.53;98.34;96022.00;5032927;28;20549;-85
2021/07/28 00:58:36;;;;;;;14.15;10.02;;;;;;;17.49;99.03;96015.47;5032093;28;20036;-82
2021/07/28 01:01:02;;;;;;;12.80;9.32;;;;;;;17.42;99.59;96012.84;5050856;28;20052;-84
2021/07/28 01:03:28;;;;;;;13.02;9.95;;;;;;;17.44;99.82;96020.63;5025986;28;20022;-84
2021/07/28 01:05:58;;;;;;;10.98;8.82;;;;;;;17.42;99.85;96020.00;5051850;28;20124;-84
2021/07/28 01:08:24;;;;;;;11.70;9.25;;;;;;;17.44;99.17;96020.63;5058548;28;20064;-84
2021/07/28 01:10:50;;;;;;;13.50;9.02;;;;;;;17.40;100.00;96020.22;5043139;28;20288;-84
2021/07/28 01:13:25;;;;;;;13.23;9.18;;;;;;;17.42;100.00;96028.78;5051191;28;20031;-84
2021/07/28 01:16:02;;;;;;;10.75;8.73;;;;;;;17.42;100.00;96022.66;5031982;28;20060;-84
2021/07/28 01:18:28;;;;;;;14.50;10.20;;;;;;;17.45;100.00;96011.63;5040966;28;20446;-84
2021/07/28 01:20:54;;;;;;;13.20;9.48;;;;;;;17.43;100.00;96008.34;5022909;28;20025;-83
2021/07/28 01:23:25;;;;;;;13.35;10.52;;;;;;;17.46;100.00;96010.59;5041206;28;20037;-84
2021/07/28 01:25:52;;;;;;;18.77;10.80;;;;;;;17.46;100.00;96018.56;5049296;28;20119;-84
2021/07/28 01:28:23;;;;;;;14.00;9.95;;;;;;;17.41;100.00;96013.06;5032747;28;20029;-84
2021/07/28 01:31:12;;;;;;;13.93;10.95;;;;;;;17.42;100.00;96014.69;5034680;28;20101;-85
2021/07/28 01:33:40;;;;;;;12.70;10.25;;;;;;;17.41;100.00;96021.03;5037518;28;20429;-85
2021/07/28 01:36:08;;;;;;;15.63;11.43;;;;;;;17.37;100.00;96023.28;5033541;28;20557;-84
2021/07/28 01:38:35;;;;;;;14.63;11.43;;;;;;;17.36;100.00;96031.47;5043635;28;20033;-85
2021/07/28 01:41:06;;;;;;;15.18;11.02;;;;;;;17.39;100.00;96026.53;5047618;28;20021;-85
2021/07/28 01:43:42;;;;;;;15.05;12.40;;;;;;;17.37;100.00;96022.44;5033093;28;20025;-85
2021/07/28 01:46:08;;;;;;;18.70;12.77;;;;;;;17.37;100.00;96014.47;5059186;28;20025;-85
2021/07/28 01:48:35;;;;;;;16.65;13.88;;;;;;;17.37;100.00;96009.16;5050626;28;20079;-84
2021/07/28 01:51:02;;;;;;;14.77;12.23;;;;;;;17.37;100.00;96011.81;5029962;28;20025;-84
2021/07/28 01:53:29;;;;;;;15.95;12.30;;;;;;;17.43;100.00;96011.00;5051911;28;20060;-83
2021/07/28 01:55:57;;;;;;;17.17;13.65;;;;;;;17.43;100.00;96005.69;5014286;28;20120;-84
2021/07/28 01:58:29;;;;;;;17.55;13.40;;;;;;;17.36;100.00;96007.53;5041071;28;20021;-84
2021/07/28 02:00:56;;;;;;;16.52;13.02;;;;;;;17.33;100.00;96006.09;5032979;28;20082;-84
2021/07/28 02:03:22;;;;;;;17.88;13.70;;;;;;;17.37;100.00;96014.47;5032054;28;20076;-83
2021/07/28 02:05:48;;;;;;;17.65;13.77;;;;;;;17.39;100.00;96015.91;5050744;28;20374;-83
2021/07/28 02:08:16;;;;;;;17.10;12.52;;;;;;;17.38;100.00;96008.16;5050153;28;20028;-83
2021/07/28 02:10:45;;;;;;;16.90;13.05;;;;;;;17.33;100.00;96018.56;5029510;28;20036;-84
2021/07/28 02:13:12;;;;;;;15.65;12.40;;;;;;;17.43;100.00;96016.31;5031047;28;20033;-83
2021/07/28 02:15:38;;;;;;;16.35;12.82;;;;;;;17.39;100.00;96018.56;5049121;28;20028;-84
2021/07/28 02:18:05;;;;;;;17.30;12.13;;;;;;;17.42;100.00;96014.69;5055761;28;20033;-85
2021/07/28 02:20:32;;;;;;;16.48;12.43;;;;;;;17.46;100.00;96002.59;5021070;28;20755;-85
2021/07/28 02:22:59;;;;;;;14.98;11.63;;;;;;;17.44;100.00;96007.34;5051597;28;20031;-85
2021/07/28 02:25:31;;;;;;;16.40;12.32;;;;;;;17.38;100.00;96013.47;5029775;28;20537;-84
2021/07/28 02:27:58;;;;;;;18.90;14.38;;;;;;;17.36;100.00;96029.59;5045091;28;20021;-85
2021/07/28 02:30:24;;;;;;;15.38;12.38;;;;;;;17.30;100.00;96029.63;5050085;28;20036;-85
2021/07/28 02:32:51;;;;;;;15.55;13.13;;;;;;;17.23;100.00;96036.78;5055309;28;20086;-85
2021/07/28 02:35:17;;;;;;;17.83;13.57;;;;;;;17.29;100.00;96028.81;5053260;28;20035;-84
2021/07/28 02:37:44;;;;;;;16.08;13.30;;;;;;;17.11;100.00;96026.78;5055955;28;20112;-85
2021/07/28 02:40:13;;;;;;;17.13;13.95;;;;;;;17.02;100.00;96025.34;5034420;28;20462;-85
2021/07/28 02:42:40;;;;;;;20.35;13.60;;;;;;;17.08;100.00;96029.03;5063371;28;20394;-85
2021/07/28 02:45:08;;;;;;;20.33;14.95;;;;;;;17.07;100.00;96016.75;5046812;28;20151;-85
2021/07/28 02:47:36;;;;;;;19.88;14.93;;;;;;;17.11;100.00;96024.13;5051990;28;20048;-83
2021/07/28 02:50:03;;;;;;;18.20;13.35;;;;;;;17.05;100.00;96024.13;5054204;28;20051;-84
2021/07/28 02:52:29;;;;;;;18.23;14.75;;;;;;;17.14;100.00;96022.91;5054946;28;20036;-83
2021/07/28 02:54:54;;;;;;;17.85;15.18;;;;;;;17.15;100.00;96019.22;5051174;28;20032;-84
2021/07/28 02:57:20;;;;;;;16.80;13.80;;;;;;;17.18;100.00;96022.28;5059556;28;20071;-84
2021/07/28 02:59:46;;;;;;;18.25;13.70;;;;;;;17.19;100.00;96025.75;5036222;28;20049;-84
2021/07/28 03:02:12;;;;;;;21.10;14.38;;;;;;;17.16;100.00;96034.94;5038098;28;20517;-85
2021/07/28 03:04:38;;;;;;;18.05;14.43;;;;;;;17.21;100.00;96029.03;5058104;28;20020;-85
2021/07/28 03:07:04;;;;;;;18.90;14.27;;;;;;;17.15;100.00;96032.50;5051997;28;20032;-84
2021/07/28 03:09:30;;;;;;;19.73;14.60;;;;;;;17.13;100.00;96029.22;5049187;28;20020;-84
2021/07/28 03:11:56;;;;;;;19.27;15.02;;;;;;;17.11;100.00;96024.13;5045926;28;20025;-84
2021/07/28 03:14:22;;;;;;;16.92;13.98;;;;;;;17.09;100.00;96031.47;5033540;28;20033;-85
2021/07/28 03:16:47;;;;;;;20.50;15.00;;;;;;;17.06;100.00;96029.22;5044575;28;20150;-85
2021/07/28 03:19:13;;;;;;;20.17;15.45;;;;;;;17.04;100.00;96025.16;5050263;28;20769;-85
2021/07/28 03:21:39;;;;;;;19.80;15.00;;;;;;;17.09;100.00;96014.72;5032159;28;20040;-85
2021/07/28 03:24:05;;;;;;;17.70;15.43;;;;;;;17.05;100.00;96014.31;5049194;28;20387;-85
2021/07/28 03:26:30;;;;;;;21.98;16.67;;;;;;;16.85;100.00;96005.53;5050599;28;20397;-85
2021/07/28 03:28:56;;;;;;;20.58;15.80;;;;;;;16.85;100.00;95995.72;5049102;28;20025;-86
2021/07/28 03:31:22;;;;;;;20.20;16.00;;;;;;;16.86;100.00;96013.28;5059481;28;20487;-86
2021/07/28 03:33:49;;;;;;;20.98;15.40;;;;;;;16.79;100.00;96014.31;5034186;28;20033;-84
2021/07/28 03:36:16;;;;;;;20.92;16.92;;;;;;;16.73;100.00;96013.25;5034122;28;20025;-85
2021/07/28 03:38:43;;;;;;;19.42;14.48;;;;;;;16.80;100.00;96021.25;5023452;28;20063;-85
2021/07/28 03:41:11;;;;;;;19.55;14.60;;;;;;;16.78;100.00;96013.50;5030499;28;20163;-85
2021/07/28 03:43:39;;;;;;;21.08;16.60;;;;;;;16.77;100.00;96021.66;5064810;28;20842;-85
2021/07/28 03:46:05;;;;;;;21.55;16.10;;;;;;;16.83;100.00;96015.53;5052709;28;20039;-84
2021/07/28 03:48:32;;;;;;;20.33;16.08;;;;;;;16.73;100.00;96016.75;5049447;28;20016;-85
2021/07/28 03:50:58;;;;;;;21.05;16.45;;;;;;;16.76;100.00;96012.06;5036354;28;20040;-85
2021/07/28 03:53:28;;;;;;;21.63;17.17;;;;;;;16.72;100.00;96017.75;5029920;28;20035;-85
2021/07/28 03:55:55;;;;;;;21.00;17.02;;;;;;;16.73;100.00;96014.09;5047920;28;20055;-85
2021/07/28 03:58:21;;;;;;;24.65;18.00;;;;;;;16.73;100.00;96006.13;5048127;28;20052;-85
2021/07/28 04:00:46;;;;;;;24.23;17.48;;;;;;;16.72;100.00;95999.16;5031220;28;20532;-85
2021/07/28 04:03:15;;;;;;;23.35;17.10;;;;;;;16.73;100.00;96000.81;5056727;28;20034;-85
2021/07/28 04:05:41;;;;;;;23.35;17.05;;;;;;;16.84;100.00;96001.25;5032887;28;20525;-83
2021/07/28 04:08:07;;;;;;;25.75;18.13;;;;;;;16.78;100.00;96007.38;5047098;28;20025;-84
2021/07/28 04:10:37;;;;;;;21.88;17.13;;;;;;;16.79;100.00;96009.81;5043110;28;20595;-84
2021/07/28 04:13:28;;;;;;;22.70;17.40;;;;;;;16.78;100.00;96007.38;5050333;28;20712;-90
2021/07/28 04:15:54;;;;;;;20.80;17.02;;;;;;;16.70;100.00;96014.50;5052390;28;20044;-90
2021/07/28 04:18:22;;;;;;;25.67;16.77;;;;;;;16.70;100.00;96014.50;5041175;28;20040;-90
2021/07/28 04:20:51;;;;;;;23.85;16.70;;;;;;;16.77;100.00;96019.00;5029654;28;20479;-90
2021/07/28 04:23:26;;;;;;;23.05;17.20;;;;;;;16.86;100.00;96023.91;5036399;28;20354;-91
2021/07/28 04:25:52;;;;;;;21.95;17.67;;;;;;;16.83;100.00;96021.66;5057614;28;20151;-90
2021/07/28 04:28:18;;;;;;;20.75;15.63;;;;;;;16.94;100.00;96025.56;5041544;28;20494;-90
2021/07/28 04:30:47;;;;;;;20.30;15.88;;;;;;;17.05;100.00;96032.09;5046154;28;20032;-90
2021/07/28 04:33:14;;;;;;;19.88;16.40;;;;;;;17.08;100.00;96029.84;5038647;28;20140;-90
2021/07/28 04:35:40;;;;;;;21.55;16.95;;;;;;;17.18;100.00;96021.47;5049053;28;20040;-89
2021/07/28 04:38:06;;;;;;;24.63;16.67;;;;;;;17.20;100.00;96011.44;5033596;28;20029;-90
2021/07/28 04:40:35;;;;;;;21.48;17.00;;;;;;;17.14;100.00;96002.47;5036281;28;20052;-89
2021/07/28 04:43:01;;;;;;;19.52;17.05;;;;;;;17.16;100.00;96011.03;5054046;28;20463;-90
2021/07/28 04:45:27;;;;;;;20.10;17.40;;;;;;;17.30;100.00;96021.66;5040599;28;20196;-89
2021/07/28 04:47:53;;;;;;;23.83;18.30;;;;;;;17.23;100.00;96018.19;5051024;28;20016;-90
2021/07/28 04:50:21;;;;;;;21.17;17.13;;;;;;;17.20;100.00;96020.25;5026271;28;20565;-90
2021/07/28 04:52:46;;;;;;;21.83;16.65;;;;;;;17.19;100.00;96028.41;5047452;28;20522;-90
2021/07/28 04:55:19;;;;;;;22.75;16.67;;;;;;;17.10;100.00;96019.00;5040780;28;20151;-89
2021/07/28 04:57:46;;;;;;;;;;;;;;;17.20;100.00;96016.75;5057498;28;20033;-90
2021/07/28 05:00:12;;;;;;;18.55;15.55;;;;;;;17.37;100.00;96009.16;5041836;28;20263;-89
2021/07/28 05:02:43;;;;;;;21.15;16.10;;;;;;;17.46;100.00;96015.91;5029007;28;20044;-90
2021/07/28 05:05:09;;;;;;;19.75;15.57;;;;;;;17.44;100.00;96020.63;5027403;28;20123;-89
2021/07/28 05:07:51;;;;;;;20.27;15.30;;;;;;;17.44;100.00;96013.47;5035378;28;20078;-89
2021/07/28 05:10:17;;;;;;;20.55;15.25;;;;;;;17.30;100.00;96011.00;5031268;28;20399;-90
2021/07/28 05:12:49;;;;;;;19.40;15.40;;;;;;;17.51;100.00;96017.94;5050781;28;20068;-90
2021/07/28 05:15:15;;;;;;;23.13;14.77;;;;;;;17.58;100.00;96014.25;5047746;28;20041;-90
2021/07/28 05:17:42;;;;;;;22.02;15.00;;;;;;;17.69;100.00;96004.81;5046368;28;20037;-90
2021/07/28 05:20:20;;;;;;;18.75;14.43;;;;;;;17.89;100.00;96020.72;5052273;28;20513;-90
2021/07/28 05:22:54;;;;;;;20.48;14.25;;;;;;;17.90;100.00;96036.47;5042766;28;20039;-89
2021/07/28 05:25:21;;;;;;;19.88;14.70;;;;;;;17.95;99.74;96043.03;5046748;28;20098;-90
2021/07/28 05:27:51;;;;;;;16.65;13.07;;;;;;;18.21;98.67;96026.13;5046408;28;20028;-90
2021/07/28 05:30:27;;;;;;;20.30;13.57;;;;;;;18.41;98.51;96010.88;5046638;28;20116;-91
2021/07/28 05:32:54;;;;;;;19.10;14.23;;;;;;;17.85;100.00;96003.56;5043850;28;20029;-89
2021/07/28 05:35:19;;;;;;;18.85;14.13;;;;;;;17.91;100.00;96000.06;5039856;28;20606;-91
2021/07/28 05:37:45;;;;;;;17.50;13.82;;;;;;;17.97;99.94;96025.81;5047071;28;20031;-91
2021/07/28 05:40:25;;;;;;;14.15;11.70;;;;;;;18.05;98.93;96022.91;5033175;28;20052;-90
2021/07/28 05:43:11;;;;;;;17.05;13.68;;;;;;;18.02;98.49;96026.00;5038739;28;20041;-91
2021/07/28 05:45:43;;;;;;;20.13;14.00;;;;;;;17.94;100.00;96015.59;5038369;28;20048;-90
2021/07/28 05:48:10;;;;;;;17.10;13.10;;;;;;;17.79;99.96;96023.00;5050794;28;20029;-91
2021/07/28 05:50:39;;;;;;;16.80;14.05;;;;;;;17.84;100.00;96031.16;5046929;28;20016;-91
2021/07/28 05:53:04;;;;;;;15.60;13.05;;;;;;;17.86;99.93;96015.81;5040142;28;20053;-90
2021/07/28 05:55:56;;;;;;;12.95;11.32;;;;;;;17.90;100.00;96012.53;5057861;28;20028;-91
2021/07/28 06:02:20;;;;;;;17.45;13.68;;;;;;;18.35;99.31;96011.72;5054129;28;20035;-92
2021/07/28 06:04:46;;;;;;;17.25;13.68;;;;;;;18.39;98.14;96004.94;5055952;28;20112;-90
2021/07/28 06:07:12;;;;;;;17.02;13.25;;;;;;;18.42;98.97;96004.50;5051336;28;20023;-90
2021/07/28 06:09:38;;;;;;;17.27;12.35;;;;;;;18.58;98.01;96013.84;5035863;28;20033;-90
2021/07/28 06:16:46;;;;;;;18.67;13.18;;;;;;;18.65;98.88;96035.13;5069970;28;20118;-91
2021/07/28 06:20:02;;;;;;;16.55;12.52;;;;;;;18.86;97.21;96029.47;4952267;28;20142;-91
2021/07/28 06:22:47;;;;;;;16.25;13.48;;;;;;;19.07;93.44;96031.75;4929840;28;20047;-91
2021/07/28 06:37:44;;;;;;;13.25;10.18;;;;;;;18.95;92.01;96049.50;4873656;29;20176;-91
2021/07/28 06:40:22;;;;;;;11.77;9.00;;;;;;;19.21;89.83;96047.63;4826181;29;20108;-91
2021/07/28 06:42:48;;;;;;;12.48;9.82;;;;;;;18.99;91.89;96049.88;4892140;28;20125;-91
2021/07/28 06:45:14;;;;;;;14.98;10.35;;;;;;;18.88;92.18;96046.06;4994338;28;20110;-94
2021/07/28 06:47:40;;;;;;;12.80;9.98;;;;;;;19.01;92.31;96042.44;5040515;28;20025;-95
2021/07/28 06:50:51;;;;;;;12.43;10.65;;;;;;;18.90;92.39;96043.97;5050431;28;20044;-94
2021/07/28 06:53:31;;;;;;;13.73;10.27;;;;;;;18.89;91.39;96037.03;5073411;28;20032;-95
2021/07/28 06:56:01;;;;;;;12.18;9.98;;;;;;;18.97;91.29;96028.75;5057199;28;20398;-95
2021/07/28 06:58:29;;;;;;;12.85;8.75;;;;;;;19.06;91.21;96024.78;5055220;28;20029;-92
2021/07/28 07:00:58;;;;;;;10.55;7.72;;;;;;;19.18;91.17;96029.41;5037079;28;20090;-92
2021/07/28 07:03:26;;;;;;;11.02;7.75;;;;;;;19.13;89.54;96026.59;5030590;28;20041;-92
2021/07/28 07:05:57;;;;;;;11.48;7.55;;;;;;;19.56;87.66;96026.59;5032062;28;20091;-92
2021/07/28 07:11:40;;;;;;;10.43;8.00;;;;;;;19.68;87.35;96019.50;5061714;28;20364;-92
2021/07/28 07:14:32;;;;;;;10.65;7.65;;;;;;;19.77;86.89;96018.19;5049761;28;20025;-91
2021/07/28 07:17:07;;;;;;;9.00;7.50;;;;;;;20.01;86.20;96027.16;5052058;28;20029;-92
2021/07/28 07:19:36;;;;;;;10.43;7.45;;;;;;;19.80;86.63;96026.78;5040025;28;20468;-92
2021/07/28 07:22:25;;;;;;;11.48;9.00;;;;;;;19.65;87.59;96025.31;5024297;28;20019;-94
2021/07/28 07:24:51;;;;;;;10.60;7.75;;;;;;;19.50;88.25;96036.28;5049268;28;20028;-95
2021/07/28 07:27:21;;;;;;;11.00;7.97;;;;;;;19.53;87.59;96037.72;5048466;28;20024;-95
2021/07/28 07:29:58;;;;;;;11.23;7.65;;;;;;;19.31;88.22;96042.63;5051512;28;20422;-95
2021/07/28 07:32:29;;;;;;;8.98;7.20;;;;;;;19.13;89.10;96047.91;5035216;28;20044;-95
2021/07/28 07:35:19;;;;;;;7.78;6.85;;;;;;;19.36;87.55;96042.78;5036436;28;20025;-94
2021/07/28 07:38:13;;;;;;;10.32;7.15;;;;;;;19.25;88.73;96047.00;5044076;28;20039;-95
2021/07/28 07:44:55;;;;;;;;;;;;;;;;;;;;;
2021/07/28 07:47:44;;;;;;;10.00;6.72;;;;;;;18.88;89.17;96066.53;5055306;28;20036;-96
2021/07/28 07:50:16;;;;;;;10.38;7.70;;;;;;;18.91;89.38;96072.25;5072162;28;20048;-95
2021/07/28 07:52:56;;;;;;;9.77;7.38;;;;;;;18.80;88.71;96075.59;5043320;28;20131;-95
2021/07/28 07:55:35;;;;;;;10.50;7.35;;;;;;;18.63;90.17;96079.78;5076266;28;20107;-94
2021/07/28 07:58:16;;;;;;;9.35;6.78;;;;;;;18.41;91.30;96090.75;5058752;28;20116;-95
2021/07/28 08:00:42;;;;;;;9.95;6.75;;;;;;;18.49;90.57;96090.50;5076039;28;20028;-95
2021/07/28 08:03:08;;;;;;;8.63;6.60;;;;;;;18.56;90.51;96087.81;5059112;28;20024;-95
2021/07/28 08:05:37;;;;;;;11.02;7.53;;;;;;;18.52;91.01;96098.06;5058586;28;20433;-95
2021/07/28 08:08:03;;;;;;;10.13;6.90;;;;;;;18.59;91.22;96082.06;5058810;28;20081;-94
2021/07/28 08:10:36;;;;;;;13.20;10.63;;;;;;;18.70;92.71;96085.88;5055395;28;20056;-95
2021/07/28 08:13:02;;;;;;;;;;;;;;;18.32;93.71;96089.34;5039237;28;20029;-94
2021/07/28 08:15:53;;;;;;;10.77;9.07;;;;;;;18.33;94.68;96085.66;5038818;28;20278;-94
2021/07/28 08:22:06;;;;;;;9.02;6.38;;;;;;;18.37;95.38;96070.88;5059714;28;20040;-93
2021/07/28 08:24:49;;;;;;;9.07;6.55;;;;;;;18.53;94.31;96078.38;5042905;28;20026;-94
2021/07/28 08:30:36;;;;;;;8.40;6.53;;;;;;;18.86;96.76;96097.91;5034827;28;20044;-96
2021/07/28 08:33:02;;;;;;;8.55;6.45;;;;;;;18.73;97.36;96094.28;5037598;28;20633;-95
2021/07/28 08:39:15;;;;;;;8.30;6.47;;;;;;;18.77;94.36;96113.31;5036788;28;20088;-95
2021/07/28 08:45:28;;;;;;;8.75;6.43;;;;;;;18.70;95.54;96115.19;5039021;28;20449;-95
2021/07/28 08:51:44;;;;;;;8.70;6.53;;;;;;;18.61;95.83;96123.44;5045307;28;20068;-94
2021/07/28 08:54:11;;;;;;;10.35;6.88;;;;;;;18.52;95.99;96122.03;5061232;28;20032;-92
2021/07/28 08:56:41;;;;;;;10.77;6.95;;;;;;;18.31;98.20;96125.00;5036495;28;20060;-92
2021/07/28 08:59:30;;;;;;;;;;;;;;;18.19;96.34;96126.66;5041422;28;20092;-95
2021/07/28 09:05:51;;;;;;;16.55;10.23;;;;;;;18.08;99.56;96112.16;5040436;28;20051;-94
2021/07/28 09:12:04;;;;;;;9.73;7.00;;;;;;;18.59;96.09;96112.16;5058423;28;20111;-95
2021/07/28 09:14:35;;;;;;;8.93;7.18;;;;;;;18.24;97.38;96113.53;5041283;28;20044;-95
2021/07/28 09:20:48;;;;;;;10.05;6.18;;;;;;;17.87;95.85;96123.84;5061822;28;20047;-95
2021/07/28 09:23:14;;;;;;;8.68;6.07;;;;;;;18.00;96.97;96109.72;5059912;28;20479;-95
2021/07/28 09:25:40;;;;;;;9.00;6.38;;;;;;;17.98;97.78;96111.78;5039897;28;20028;-92
2021/07/28 09:28:18;;;;;;;9.07;6.63;;;;;;;18.06;96.87;96117.69;5036228;28;20033;-94
2021/07/28 09:30:48;;;;;;;10.98;7.07;;;;;;;18.02;95.54;96111.16;5049643;28;20029;-94
2021/07/28 09:33:18;;;;;;;8.50;6.13;;;;;;;17.99;96.04;96114.22;5040156;28;20375;-93
2021/07/28 09:35:54;;;;;;;9.23;6.00;;;;;;;18.02;96.27;96121.78;5038880;28;20037;-93
2021/07/28 09:38:36;;;;;;;8.07;5.63;;;;;;;18.01;95.52;96124.69;5035376;28;20040;-92
2021/07/28 09:41:27;;;;;;;8.38;5.88;;;;;;;17.88;94.72;96125.50;5033705;28;20116;-94
2021/07/28 09:44:00;;;;;;;8.00;4.88;;;;;;;18.03;91.42;96130.59;5037304;28;20115;-94
2021/07/28 09:46:28;;;;;;;8.25;5.43;;;;;;;18.12;91.99;96122.19;5077620;28;20019;-94
2021/07/28 09:48:57;;;;;;;8.32;5.03;;;;;;;17.79;89.64;96130.22;5054133;28;20021;-95
2021/07/28 09:51:23;;;;;;;9.48;5.15;;;;;;;17.89;89.97;96138.59;5064953;28;20051;-94
2021/07/28 09:53:56;;;;;;;7.82;4.40;;;;;;;18.20;90.09;96136.28;5047431;28;20025;-94
2021/07/28 09:59:55;;;;;;;8.23;5.07;;;;;;;18.05;88.10;96129.38;5050924;28;20566;-95
2021/07/28 10:02:23;;;;;;;7.55;4.45;;;;;;;18.01;87.25;96130.81;5045789;28;20487;-94
2021/07/28 10:04:52;;;;;;;7.18;4.07;;;;;;;18.07;87.72;96137.94;5044113;28;20047;-93
2021/07/28 10:07:20;;;;;;;7.85;4.45;;;;;;;18.08;87.76;96134.28;5038188;28;20025;-95
2021/07/28 10:13:34;;;;;;;7.38;4.28;;;;;;;17.83;87.65;96138.59;5059419;28;20047;-94
2021/07/28 10:15:59;;;;;;;7.00;4.68;;;;;;;17.73;88.37;96139.00;5040892;28;20033;-94
2021/07/28 10:22:15;;;;;;;10.73;5.55;;;;;;;17.81;88.95;96132.69;5058276;28;20060;-94
2021/07/28 10:28:28;;;;;;;32.53;12.38;;;;;;;17.94;89.49;96130.00;5068533;28;20052;-96
2021/07/28 10:34:42;;;;;;;10.07;5.43;;;;;;;18.27;88.14;96118.44;5066155;28;20066;-96
2021/07/28 10:41:04;;;;;;;8.98;5.20;;;;;;;18.53;86.07;96121.00;5059571;28;20398;-96
2021/07/28 10:47:17;;;;;;;6.78;4.28;;;;;;;18.53;85.70;96107.69;5059216;28;20571;-96
2021/07/28 11:04:23;;;;;;;10.55;5.25;;;;;;;18.94;79.82;96098.47;5061635;28;20075;-96
2021/07/28 11:06:50;;;;;;;7.93;4.20;;;;;;;18.93;77.46;96104.84;5043460;28;20029;-96
2021/07/28 11:13:11;;;;;;;8.52;4.75;;;;;;;18.77;78.97;96116.81;5062003;28;20035;-95
2021/07/28 11:19:45;;;;;;;8.68;5.50;;;;;;;18.78;78.97;96107.00;5066769;28;20075;-95
2021/07/28 11:41:11;;;;;;;8.70;4.80;;;;;;;20.98;72.79;96081.59;5012263;22;20060;-78
2021/07/28 11:43:39;;;;;;;7.13;4.60;;;;;;;20.83;72.59;96085.53;5054724;28;20493;-78
2021/07/28 11:46:11;;;;;;;6.47;3.70;;;;;;;20.80;70.66;96085.97;5044396;28;20067;-78
2021/07/28 11:48:41;;;;;;;6.70;4.05;;;;;;;20.38;72.38;96088.53;5074842;28;20050;-79
2021/07/28 11:51:35;;;;;;;7.70;4.47;;;;;;;20.49;72.58;96095.81;5074190;28;20055;-79
2021/07/28 11:54:15;;;;;;;6.80;4.35;;;;;;;20.55;72.85;96096.78;5053342;28;20049;-78
2021/07/28 11:56:48;;;;;;;8.07;5.10;;;;;;;20.35;73.56;96094.31;5037923;28;20119;-79
2021/07/28 11:59:19;;;;;;;8.38;4.63;;;;;;;20.47;72.14;96097.88;5043735;28;20040;-78
2021/07/28 12:01:52;;;;;;;7.60;4.50;;;;;;;20.40;72.32;96097.16;5045457;28;20037;-79
2021/07/28 12:04:19;;;;;;;;;;;;;;;20.60;71.58;96101.47;5062448;28;20064;-79
2021/07/28 12:06:45;;;;;;;7.35;4.68;;;;;;;20.35;73.65;96099.66;5068141;28;19912;-79
2021/07/28 12:09:18;;;;;;;11.13;6.07;;;;;;;20.54;73.98;96097.81;5064871;28;20123;-79
2021/07/28 12:11:46;;;;;;;7.30;4.80;;;;;;;20.50;73.22;96101.97;5061660;28;20027;-78
2021/07/28 12:14:25;;;;;;;8.68;5.32;;;;;;;20.49;73.06;96106.50;5050590;28;20638;-78
2021/07/28 12:16:53;;;;;;;8.98;5.00;;;;;;;20.53;71.68;96101.53;5053579;28;20125;-78
2021/07/28 12:19:37;;;;;;;7.00;4.75;;;;;;;20.40;71.28;96105.16;5055309;28;20028;-78
2021/07/28 12:22:09;;;;;;;6.43;4.22;;;;;;;20.69;71.98;96103.59;5058362;28;20040;-78
2021/07/28 12:24:42;;;;;;;7.40;5.32;;;;;;;20.63;72.37;96106.34;5058013;28;20039;-79
2021/07/28 12:27:35;;;;;;;6.47;4.43;;;;;;;20.83;70.90;96108.75;5071439;28;20025;-78
2021/07/28 12:30:19;;;;;;;5.78;3.92;;;;;;;21.06;70.43;96105.31;5057062;28;20036;-78
2021/07/28 12:32:48;;;;;;;6.43;4.47;;;;;;;21.21;70.21;96103.06;5040312;28;20537;-78
2021/07/28 12:35:22;;;;;;;7.95;4.82;;;;;;;21.41;69.10;96103.59;5048183;28;20092;-77
2021/07/28 12:38:23;;;;;;;7.65;4.85;;;;;;;22.87;64.22;96104.56;5080127;28;20145;-77
2021/07/28 12:40:52;;;;;;;7.28;4.55;;;;;;;23.11;62.68;96098.06;5079839;28;20036;-78
2021/07/28 12:43:18;;;;;;;8.65;5.20;;;;;;;22.41;64.61;96107.19;5063715;28;20071;-77
2021/07/28 12:45:45;;;;;;;6.78;4.40;;;;;;;22.91;61.52;96100.38;5065745;28;20108;-77
2021/07/28 12:48:11;;;;;;;7.68;4.75;;;;;;;23.65;60.32;96101.09;5052892;28;20209;-76
2021/07/28 12:50:41;;;;;;;7.63;4.95;;;;;;;22.36;62.94;96110.53;5078888;28;20024;-77
2021/07/28 12:53:06;;;;;;;8.15;5.03;;;;;;;23.03;60.50;96099.25;5053937;28;20033;-78
2021/07/28 12:55:32;;;;;;;8.35;5.70;;;;;;;22.87;61.34;96099.19;5059049;28;20013;-77
2021/07/28 12:57:58;;;;;;;7.43;5.18;;;;;;;22.76;61.40;96104.38;5076734;28;20034;-78
2021/07/28 13:00:24;;;;;;;7.05;4.20;;;;;;;23.61;56.26;96093.78;5075584;28;20361;-78
2021/07/28 13:02:50;;;;;;;5.85;3.65;;;;;;;24.50;56.14;96085.66;5045308;28;20047;-79
2021/07/28 13:05:25;;;;;;;6.43;4.05;;;;;;;24.11;53.82;96092.91;5066122;28;20778;-78
2021/07/28 13:07:57;;;;;;;6.85;4.20;;;;;;;23.92;55.41;96095.09;5050292;28;20028;-78
2021/07/28 13:10:23;;;;;;;7.03;4.67;;;;;;;24.28;54.59;96088.31;5072657;28;20111;-78
2021/07/28 13:12:49;;;;;;;6.18;4.05;;;;;;;23.81;54.44;96088.75;5069437;28;20017;-79
2021/07/28 13:15:15;;;;;;;8.38;5.65;;;;;;;23.47;56.91;96079.88;5057639;28;20074;-78
2021/07/28 13:17:41;;;;;;;6.65;4.60;;;;;;;24.28;55.49;96076.75;5049281;28;20025;-78
2021/07/28 13:20:08;;;;;;;7.55;4.95;;;;;;;24.04;53.39;96071.59;5048174;28;20033;-78
2021/07/28 13:22:34;;;;;;;7.00;3.83;;;;;;;24.02;53.55;96087.19;5056605;28;20027;-78
2021/07/28 13:24:59;;;;;;;5.35;3.53;;;;;;;24.21;52.65;96087.69;5051436;28;20750;-79
2021/07/28 13:28:10;;;;;;;5.38;3.80;;;;;;;23.91;53.14;96098.81;5057833;28;20001;-79
2021/07/28 13:30:36;;;;;;;6.57;3.70;;;;;;;24.13;52.06;96091.63;5051204;28;20123;-78
2021/07/28 13:33:03;;;;;;;6.40;3.55;;;;;;;24.28;51.20;96099.09;5066128;28;20139;-77
2021/07/28 13:35:29;;;;;;;5.68;2.88;;;;;;;24.06;50.01;96092.84;5062501;28;20035;-78
2021/07/28 13:37:54;;;;;;;5.13;2.88;;;;;;;24.65;50.57;96093.09;5066357;28;20028;-77
2021/07/28 13:40:20;;;;;;;6.97;3.58;;;;;;;23.95;50.65;96094.59;5061305;28;20032;-76
2021/07/28 13:42:49;;;;;;;6.40;3.17;;;;;;;24.48;50.94;96079.75;5055447;28;20032;-77
2021/07/28 13:45:16;;;;;;;5.32;3.47;;;;;;;24.37;52.92;96080.63;5054688;28;20500;-77
2021/07/28 13:47:49;;;;;;;4.82;2.83;;;;;;;23.83;50.23;96078.56;5045793;28;20021;-77